sensor_id;sensor_type;location;lat;lon;timestamp;temperature;humidity
52209;DHT22;38507;53.132;6.394;2023-02-22T00:00:39;8.00;99.90
52209;DHT22;38507;53.132;6.394;2023-02-22T00:03:16;8.80;99.90
52209;DHT22;38507;53.132;6.394;2023-02-22T00:05:45;9.00;99.90
52209;DHT22;38507;53.132;6.394;2023-02-22T00:08:22;7.80;99.90
52209;DHT22;38507;53.132;6.394;2023-02-22T00:10:48;8.30;99.90
52209;DHT22;38507;53.132;6.394;2023-02-22T00:13:18;9.10;99.90
52209;DHT22;38507;53.132;6.394;2023-02-22T00:15:47;8.20;99.90
52209;DHT22;38507;53.132;6.394;2023-02-22T00:18:16;8.20;99.90
52209;DHT22;38507;53.132;6.394;2023-02-22T00:20:42;9.00;99.90
52209;DHT22;38507;53.132;6.394;2023-02-22T00:23:17;8.70;99.90
52209;DHT22;38507;53.132;6.394;2023-02-22T00:25:47;8.80;99.90
52209;DHT22;38507;53.132;6.394;2023-02-22T00:28:13;8.80;99.90
52209;DHT22;38507;53.132;6.394;2023-02-22T00:30:39;8.20;99.90
52209;DHT22;38507;53.132;6.394;2023-02-22T00:33:09;8.10;99.90
52209;DHT22;38507;53.132;6.394;2023-02-22T00:35:35;8.90;99.90
52209;DHT22;38507;53.132;6.394;2023-02-22T00:38:01;8.50;99.90
52209;DHT22;38507;53.132;6.394;2023-02-22T00:40:29;8.80;99.90
52209;DHT22;38507;53.132;6.394;2023-02-22T00:43:00;8.10;99.90
52209;DHT22;38507;53.132;6.394;2023-02-22T00:45:28;8.90;99.90
52209;DHT22;38507;53.132;6.394;2023-02-22T00:47:54;8.10;99.90
52209;DHT22;38507;53.132;6.394;2023-02-22T00:50:21;8.50;99.90
52209;DHT22;38507;53.132;6.394;2023-02-22T00:52:47;8.10;99.90
52209;DHT22;38507;53.132;6.394;2023-02-22T00:55:24;8.90;99.90
52209;DHT22;38507;53.132;6.394;2023-02-22T00:57:51;8.10;99.90
52209;DHT22;38507;53.132;6.394;2023-02-22T01:00:26;8.50;99.90
52209;DHT22;38507;53.132;6.394;2023-02-22T01:02:53;8.10;99.90
52209;DHT22;38507;53.132;6.394;2023-02-22T01:05:23;8.80;99.90
52209;DHT22;38507;53.132;6.394;2023-02-22T01:07:49;8.60;99.90
52209;DHT22;38507;53.132;6.394;2023-02-22T01:10:17;8.50;99.90
52209;DHT22;38507;53.132;6.394;2023-02-22T01:12:44;8.00;99.90
52209;DHT22;38507;53.132;6.394;2023-02-22T01:15:10;8.50;99.90
52209;DHT22;38507;53.132;6.394;2023-02-22T01:17:37;8.00;99.90
52209;DHT22;38507;53.132;6.394;2023-02-22T01:20:05;8.00;99.90
52209;DHT22;38507;53.132;6.394;2023-02-22T01:22:39;8.00;99.90
52209;DHT22;38507;53.132;6.394;2023-02-22T01:25:05;8.90;99.90
52209;DHT22;38507;53.132;6.394;2023-02-22T01:27:35;8.00;99.90
52209;DHT22;38507;53.132;6.394;2023-02-22T01:30:03;8.00;99.90
52209;DHT22;38507;53.132;6.394;2023-02-22T01:32:37;8.00;99.90
52209;DHT22;38507;53.132;6.394;2023-02-22T01:35:09;8.00;99.90
52209;DHT22;38507;53.132;6.394;2023-02-22T01:37:35;8.00;99.90
52209;DHT22;38507;53.132;6.394;2023-02-22T01:40:03;8.80;99.90
52209;DHT22;38507;53.132;6.394;2023-02-22T01:42:29;8.70;99.90
52209;DHT22;38507;53.132;6.394;2023-02-22T01:50:28;7.90;99.90
52209;DHT22;38507;53.132;6.394;2023-02-22T01:52:54;8.70;99.90
52209;DHT22;38507;53.132;6.394;2023-02-22T01:55:20;8.60;99.90
52209;DHT22;38507;53.132;6.394;2023-02-22T01:57:47;8.10;99.90
52209;DHT22;38507;53.132;6.394;2023-02-22T02:00:15;8.20;99.90
52209;DHT22;38507;53.132;6.394;2023-02-22T02:02:46;7.90;99.90
52209;DHT22;38507;53.132;6.394;2023-02-22T02:05:13;8.50;99.90
52209;DHT22;38507;53.132;6.394;2023-02-22T02:07:39;7.90;99.90
52209;DHT22;38507;53.132;6.394;2023-02-22T02:10:10;8.60;99.90
52209;DHT22;38507;53.132;6.394;2023-02-22T02:12:43;7.90;99.90
52209;DHT22;38507;53.132;6.394;2023-02-22T02:15:26;7.90;99.90
52209;DHT22;38507;53.132;6.394;2023-02-22T02:18:05;7.90;99.90
52209;DHT22;38507;53.132;6.394;2023-02-22T02:20:33;7.90;99.90
52209;DHT22;38507;53.132;6.394;2023-02-22T02:34:00;7.80;99.90
52209;DHT22;38507;53.132;6.394;2023-02-22T02:36:48;7.90;99.90
52209;DHT22;38507;53.132;6.394;2023-02-22T02:39:24;7.80;99.90
52209;DHT22;38507;53.132;6.394;2023-02-22T02:41:52;8.20;99.90
52209;DHT22;38507;53.132;6.394;2023-02-22T02:47:03;7.80;99.90
52209;DHT22;38507;53.132;6.394;2023-02-22T02:52:14;8.30;99.90
52209;DHT22;38507;53.132;6.394;2023-02-22T02:54:41;8.50;99.90
52209;DHT22;38507;53.132;6.394;2023-02-22T02:57:07;8.60;99.90
52209;DHT22;38507;53.132;6.394;2023-02-22T02:59:36;8.10;99.90
52209;DHT22;38507;53.132;6.394;2023-02-22T03:02:18;8.40;99.90
52209;DHT22;38507;53.132;6.394;2023-02-22T03:08:06;7.80;99.90
52209;DHT22;38507;53.132;6.394;2023-02-22T03:10:47;7.80;99.90
52209;DHT22;38507;53.132;6.394;2023-02-22T03:13:36;7.80;99.90
52209;DHT22;38507;53.132;6.394;2023-02-22T03:18:55;8.50;99.90
52209;DHT22;38507;53.132;6.394;2023-02-22T03:21:24;7.80;99.90
52209;DHT22;38507;53.132;6.394;2023-02-22T03:26:47;7.80;99.90
52209;DHT22;38507;53.132;6.394;2023-02-22T03:29:16;8.40;99.90
52209;DHT22;38507;53.132;6.394;2023-02-22T03:31:51;8.50;99.90
52209;DHT22;38507;53.132;6.394;2023-02-22T03:34:21;8.20;99.90
52209;DHT22;38507;53.132;6.394;2023-02-22T03:36:53;8.30;99.90
52209;DHT22;38507;53.132;6.394;2023-02-22T03:39:22;7.80;99.90
52209;DHT22;38507;53.132;6.394;2023-02-22T03:42:05;8.20;99.90
52209;DHT22;38507;53.132;6.394;2023-02-22T03:44:34;7.70;99.90
52209;DHT22;38507;53.132;6.394;2023-02-22T03:47:06;8.50;99.90
52209;DHT22;38507;53.132;6.394;2023-02-22T03:49:36;8.50;99.90
52209;DHT22;38507;53.132;6.394;2023-02-22T03:52:06;8.20;99.90
52209;DHT22;38507;53.132;6.394;2023-02-22T03:54:32;7.70;99.90
52209;DHT22;38507;53.132;6.394;2023-02-22T03:57:39;8.10;99.90
52209;DHT22;38507;53.132;6.394;2023-02-22T04:00:08;7.70;99.90
52209;DHT22;38507;53.132;6.394;2023-02-22T04:02:34;7.70;99.90
52209;DHT22;38507;53.132;6.394;2023-02-22T04:05:00;8.10;99.90
52209;DHT22;38507;53.132;6.394;2023-02-22T04:07:25;8.40;99.90
52209;DHT22;38507;53.132;6.394;2023-02-22T04:09:51;8.30;99.90
52209;DHT22;38507;53.132;6.394;2023-02-22T04:12:17;7.90;99.90
52209;DHT22;38507;53.132;6.394;2023-02-22T04:14:42;8.40;99.90
52209;DHT22;38507;53.132;6.394;2023-02-22T04:17:08;7.80;99.90
52209;DHT22;38507;53.132;6.394;2023-02-22T04:19:34;7.60;99.90
52209;DHT22;38507;53.132;6.394;2023-02-22T04:22:00;7.80;99.90
52209;DHT22;38507;53.132;6.394;2023-02-22T04:24:26;7.90;99.90
52209;DHT22;38507;53.132;6.394;2023-02-22T04:26:51;8.10;99.90
52209;DHT22;38507;53.132;6.394;2023-02-22T04:29:17;8.00;99.90
52209;DHT22;38507;53.132;6.394;2023-02-22T04:31:43;8.10;99.90
52209;DHT22;38507;53.132;6.394;2023-02-22T04:34:09;8.20;99.90
52209;DHT22;38507;53.132;6.394;2023-02-22T04:36:34;7.60;99.90
52209;DHT22;38507;53.132;6.394;2023-02-22T04:39:00;7.60;99.90
52209;DHT22;38507;53.132;6.394;2023-02-22T04:41:26;7.90;99.90
52209;DHT22;38507;53.132;6.394;2023-02-22T04:43:52;8.30;99.90
52209;DHT22;38507;53.132;6.394;2023-02-22T04:46:17;8.50;99.90
52209;DHT22;38507;53.132;6.394;2023-02-22T04:48:44;8.20;99.90
52209;DHT22;38507;53.132;6.394;2023-02-22T04:51:10;8.10;99.90
52209;DHT22;38507;53.132;6.394;2023-02-22T04:53:36;8.30;99.90
52209;DHT22;38507;53.132;6.394;2023-02-22T04:56:01;8.30;99.90
52209;DHT22;38507;53.132;6.394;2023-02-22T04:58:27;8.20;99.90
52209;DHT22;38507;53.132;6.394;2023-02-22T05:00:53;7.90;99.90
52209;DHT22;38507;53.132;6.394;2023-02-22T05:03:18;7.60;99.90
52209;DHT22;38507;53.132;6.394;2023-02-22T05:05:44;8.30;99.90
52209;DHT22;38507;53.132;6.394;2023-02-22T05:08:10;8.30;99.90
52209;DHT22;38507;53.132;6.394;2023-02-22T05:10:35;7.60;99.90
52209;DHT22;38507;53.132;6.394;2023-02-22T05:13:01;8.40;99.90
52209;DHT22;38507;53.132;6.394;2023-02-22T05:15:27;8.10;99.90
52209;DHT22;38507;53.132;6.394;2023-02-22T05:17:53;7.60;99.90
52209;DHT22;38507;53.132;6.394;2023-02-22T05:20:27;8.30;99.90
52209;DHT22;38507;53.132;6.394;2023-02-22T05:22:54;7.60;99.90
52209;DHT22;38507;53.132;6.394;2023-02-22T05:25:20;7.60;99.90
52209;DHT22;38507;53.132;6.394;2023-02-22T05:27:54;8.20;99.90
52209;DHT22;38507;53.132;6.394;2023-02-22T05:30:23;8.40;99.90
52209;DHT22;38507;53.132;6.394;2023-02-22T05:32:50;7.50;99.90
52209;DHT22;38507;53.132;6.394;2023-02-22T05:35:17;8.10;99.90
52209;DHT22;38507;53.132;6.394;2023-02-22T05:37:43;8.30;99.90
52209;DHT22;38507;53.132;6.394;2023-02-22T05:40:09;7.50;99.90
52209;DHT22;38507;53.132;6.394;2023-02-22T05:42:35;7.50;99.90
52209;DHT22;38507;53.132;6.394;2023-02-22T05:45:00;7.30;99.90
52209;DHT22;38507;53.132;6.394;2023-02-22T05:47:26;8.20;99.90
52209;DHT22;38507;53.132;6.394;2023-02-22T05:49:52;8.40;99.90
52209;DHT22;38507;53.132;6.394;2023-02-22T05:52:18;8.40;99.90
52209;DHT22;38507;53.132;6.394;2023-02-22T05:54:43;7.50;99.90
52209;DHT22;38507;53.132;6.394;2023-02-22T05:57:09;8.30;99.90
52209;DHT22;38507;53.132;6.394;2023-02-22T05:59:35;8.20;99.90
52209;DHT22;38507;53.132;6.394;2023-02-22T06:02:00;8.20;99.90
52209;DHT22;38507;53.132;6.394;2023-02-22T06:04:26;8.10;99.90
52209;DHT22;38507;53.132;6.394;2023-02-22T06:06:52;7.40;99.90
52209;DHT22;38507;53.132;6.394;2023-02-22T06:09:18;8.20;99.90
52209;DHT22;38507;53.132;6.394;2023-02-22T06:11:43;8.10;99.90
52209;DHT22;38507;53.132;6.394;2023-02-22T06:14:09;8.00;99.90
52209;DHT22;38507;53.132;6.394;2023-02-22T06:16:35;8.10;99.90
52209;DHT22;38507;53.132;6.394;2023-02-22T06:19:00;7.80;99.90
52209;DHT22;38507;53.132;6.394;2023-02-22T06:21:26;7.40;99.90
52209;DHT22;38507;53.132;6.394;2023-02-22T06:23:52;8.00;99.90
52209;DHT22;38507;53.132;6.394;2023-02-22T06:26:18;8.00;99.90
52209;DHT22;38507;53.132;6.394;2023-02-22T06:28:45;7.60;99.90
52209;DHT22;38507;53.132;6.394;2023-02-22T06:31:11;8.10;99.90
52209;DHT22;38507;53.132;6.394;2023-02-22T06:33:36;7.30;99.90
52209;DHT22;38507;53.132;6.394;2023-02-22T06:36:11;7.60;99.90
52209;DHT22;38507;53.132;6.394;2023-02-22T06:38:37;8.10;99.90
52209;DHT22;38507;53.132;6.394;2023-02-22T06:41:03;8.00;99.90
52209;DHT22;38507;53.132;6.394;2023-02-22T06:43:28;7.30;99.90
52209;DHT22;38507;53.132;6.394;2023-02-22T06:45:54;8.00;99.90
52209;DHT22;38507;53.132;6.394;2023-02-22T06:48:20;7.20;99.90
52209;DHT22;38507;53.132;6.394;2023-02-22T06:50:45;8.00;99.90
52209;DHT22;38507;53.132;6.394;2023-02-22T06:53:11;7.50;99.90
52209;DHT22;38507;53.132;6.394;2023-02-22T06:55:37;7.80;99.90
52209;DHT22;38507;53.132;6.394;2023-02-22T06:58:03;8.10;99.90
52209;DHT22;38507;53.132;6.394;2023-02-22T07:00:30;8.00;99.90
52209;DHT22;38507;53.132;6.394;2023-02-22T07:02:57;7.90;99.90
52209;DHT22;38507;53.132;6.394;2023-02-22T07:05:24;7.20;99.90
52209;DHT22;38507;53.132;6.394;2023-02-22T07:07:53;7.70;99.90
52209;DHT22;38507;53.132;6.394;2023-02-22T07:10:27;8.00;99.90
52209;DHT22;38507;53.132;6.394;2023-02-22T07:12:53;7.10;99.90
52209;DHT22;38507;53.132;6.394;2023-02-22T07:15:21;7.10;99.90
52209;DHT22;38507;53.132;6.394;2023-02-22T07:17:48;7.30;99.90
52209;DHT22;38507;53.132;6.394;2023-02-22T07:20:14;7.80;99.90
52209;DHT22;38507;53.132;6.394;2023-02-22T07:22:40;7.00;99.90
52209;DHT22;38507;53.132;6.394;2023-02-22T07:25:07;7.00;99.90
52209;DHT22;38507;53.132;6.394;2023-02-22T07:27:37;7.00;99.90
52209;DHT22;38507;53.132;6.394;2023-02-22T07:30:05;7.60;99.90
52209;DHT22;38507;53.132;6.394;2023-02-22T07:32:31;7.00;99.90
52209;DHT22;38507;53.132;6.394;2023-02-22T07:34:56;7.90;99.90
52209;DHT22;38507;53.132;6.394;2023-02-22T07:37:22;7.60;99.90
52209;DHT22;38507;53.132;6.394;2023-02-22T07:39:48;7.90;99.90
52209;DHT22;38507;53.132;6.394;2023-02-22T07:42:13;7.80;99.90
52209;DHT22;38507;53.132;6.394;2023-02-22T07:44:39;7.90;99.90
52209;DHT22;38507;53.132;6.394;2023-02-22T07:47:05;7.70;99.90
52209;DHT22;38507;53.132;6.394;2023-02-22T07:49:30;7.10;99.90
52209;DHT22;38507;53.132;6.394;2023-02-22T07:51:56;7.80;99.90
52209;DHT22;38507;53.132;6.394;2023-02-22T07:54:22;7.70;99.90
52209;DHT22;38507;53.132;6.394;2023-02-22T07:56:48;7.10;99.90
52209;DHT22;38507;53.132;6.394;2023-02-22T07:59:14;7.30;99.90
52209;DHT22;38507;53.132;6.394;2023-02-22T08:01:40;7.90;99.90
52209;DHT22;38507;53.132;6.394;2023-02-22T08:04:06;7.00;99.90
52209;DHT22;38507;53.132;6.394;2023-02-22T08:06:32;7.20;99.90
52209;DHT22;38507;53.132;6.394;2023-02-22T08:08:58;7.80;99.90
52209;DHT22;38507;53.132;6.394;2023-02-22T08:11:25;7.50;99.90
52209;DHT22;38507;53.132;6.394;2023-02-22T08:13:50;7.90;99.90
52209;DHT22;38507;53.132;6.394;2023-02-22T08:16:16;7.80;99.90
52209;DHT22;38507;53.132;6.394;2023-02-22T08:18:42;8.10;99.90
52209;DHT22;38507;53.132;6.394;2023-02-22T08:21:07;7.50;99.90
52209;DHT22;38507;53.132;6.394;2023-02-22T08:23:33;8.00;99.90
52209;DHT22;38507;53.132;6.394;2023-02-22T08:26:10;7.30;99.90
52209;DHT22;38507;53.132;6.394;2023-02-22T08:28:40;7.80;99.90
52209;DHT22;38507;53.132;6.394;2023-02-22T08:31:05;7.30;99.90
52209;DHT22;38507;53.132;6.394;2023-02-22T08:33:33;7.70;99.90
52209;DHT22;38507;53.132;6.394;2023-02-22T08:35:59;8.10;99.90
52209;DHT22;38507;53.132;6.394;2023-02-22T08:38:28;8.00;99.90
52209;DHT22;38507;53.132;6.394;2023-02-22T08:40:54;7.60;99.90
52209;DHT22;38507;53.132;6.394;2023-02-22T08:43:21;7.30;99.90
52209;DHT22;38507;53.132;6.394;2023-02-22T08:45:47;7.70;99.90
52209;DHT22;38507;53.132;6.394;2023-02-22T08:48:14;8.10;99.90
52209;DHT22;38507;53.132;6.394;2023-02-22T08:50:40;7.30;99.90
52209;DHT22;38507;53.132;6.394;2023-02-22T08:53:09;8.20;99.90
52209;DHT22;38507;53.132;6.394;2023-02-22T08:55:37;8.20;99.90
52209;DHT22;38507;53.132;6.394;2023-02-22T08:58:04;7.40;99.90
52209;DHT22;38507;53.132;6.394;2023-02-22T09:00:31;8.30;99.90
52209;DHT22;38507;53.132;6.394;2023-02-22T09:02:59;8.10;99.90
52209;DHT22;38507;53.132;6.394;2023-02-22T09:05:25;8.20;99.90
52209;DHT22;38507;53.132;6.394;2023-02-22T09:07:51;8.00;99.90
52209;DHT22;38507;53.132;6.394;2023-02-22T09:10:23;8.20;99.90
52209;DHT22;38507;53.132;6.394;2023-02-22T09:12:50;7.50;99.90
52209;DHT22;38507;53.132;6.394;2023-02-22T09:15:16;8.20;99.90
52209;DHT22;38507;53.132;6.394;2023-02-22T09:17:43;7.60;99.90
52209;DHT22;38507;53.132;6.394;2023-02-22T09:20:09;7.50;99.90
52209;DHT22;38507;53.132;6.394;2023-02-22T09:22:37;7.50;99.90
52209;DHT22;38507;53.132;6.394;2023-02-22T09:25:03;7.50;99.90
52209;DHT22;38507;53.132;6.394;2023-02-22T09:27:32;7.60;99.90
52209;DHT22;38507;53.132;6.394;2023-02-22T09:29:58;7.60;99.90
52209;DHT22;38507;53.132;6.394;2023-02-22T09:32:24;8.30;99.90
52209;DHT22;38507;53.132;6.394;2023-02-22T09:34:53;7.60;99.90
52209;DHT22;38507;53.132;6.394;2023-02-22T09:37:19;7.60;99.90
52209;DHT22;38507;53.132;6.394;2023-02-22T09:39:45;7.60;99.90
52209;DHT22;38507;53.132;6.394;2023-02-22T09:45:06;7.60;99.90
52209;DHT22;38507;53.132;6.394;2023-02-22T09:47:44;7.60;99.90
52209;DHT22;38507;53.132;6.394;2023-02-22T09:50:15;7.60;99.90
52209;DHT22;38507;53.132;6.394;2023-02-22T09:56:26;7.60;99.90
52209;DHT22;38507;53.132;6.394;2023-02-22T09:58:59;7.60;99.90
52209;DHT22;38507;53.132;6.394;2023-02-22T10:01:36;8.40;99.90
52209;DHT22;38507;53.132;6.394;2023-02-22T10:04:10;8.60;99.90
52209;DHT22;38507;53.132;6.394;2023-02-22T10:06:38;8.50;99.90
52209;DHT22;38507;53.132;6.394;2023-02-22T10:09:12;8.40;99.90
52209;DHT22;38507;53.132;6.394;2023-02-22T10:11:50;8.30;99.90
52209;DHT22;38507;53.132;6.394;2023-02-22T10:23:34;7.80;99.90
52209;DHT22;38507;53.132;6.394;2023-02-22T10:28:55;7.90;99.90
52209;DHT22;38507;53.132;6.394;2023-02-22T10:31:40;7.90;99.90
52209;DHT22;38507;53.132;6.394;2023-02-22T10:34:25;8.70;99.90
52209;DHT22;38507;53.132;6.394;2023-02-22T10:37:16;8.00;99.90
52209;DHT22;38507;53.132;6.394;2023-02-22T10:39:44;8.50;99.90
52209;DHT22;38507;53.132;6.394;2023-02-22T10:42:20;8.00;99.90
52209;DHT22;38507;53.132;6.394;2023-02-22T10:44:47;8.60;99.90
52209;DHT22;38507;53.132;6.394;2023-02-22T10:47:23;8.60;99.90
52209;DHT22;38507;53.132;6.394;2023-02-22T10:49:52;9.00;99.90
52209;DHT22;38507;53.132;6.394;2023-02-22T10:52:36;8.90;99.90
52209;DHT22;38507;53.132;6.394;2023-02-22T10:55:02;8.20;99.90
52209;DHT22;38507;53.132;6.394;2023-02-22T10:57:34;8.30;99.90
52209;DHT22;38507;53.132;6.394;2023-02-22T11:00:22;8.40;99.90
52209;DHT22;38507;53.132;6.394;2023-02-22T11:03:16;8.50;99.90
52209;DHT22;38507;53.132;6.394;2023-02-22T11:05:43;8.60;99.90
52209;DHT22;38507;53.132;6.394;2023-02-22T11:10:47;9.40;99.90
52209;DHT22;38507;53.132;6.394;2023-02-22T11:15:50;9.30;99.90
52209;DHT22;38507;53.132;6.394;2023-02-22T11:18:42;9.40;99.90
52209;DHT22;38507;53.132;6.394;2023-02-22T11:21:10;8.90;99.90
52209;DHT22;38507;53.132;6.394;2023-02-22T11:23:39;9.60;99.90
52209;DHT22;38507;53.132;6.394;2023-02-22T11:26:14;9.60;99.90
52209;DHT22;38507;53.132;6.394;2023-02-22T11:28:47;9.10;99.90
52209;DHT22;38507;53.132;6.394;2023-02-22T11:31:20;9.40;99.90
52209;DHT22;38507;53.132;6.394;2023-02-22T11:33:59;9.50;99.90
52209;DHT22;38507;53.132;6.394;2023-02-22T11:36:39;9.30;99.90
52209;DHT22;38507;53.132;6.394;2023-02-22T11:41:45;9.80;99.90
52209;DHT22;38507;53.132;6.394;2023-02-22T11:44:21;9.70;99.90
52209;DHT22;38507;53.132;6.394;2023-02-22T11:46:48;9.30;99.90
52209;DHT22;38507;53.132;6.394;2023-02-22T11:49:15;9.70;99.90
52209;DHT22;38507;53.132;6.394;2023-02-22T11:51:55;10.10;99.90
52209;DHT22;38507;53.132;6.394;2023-02-22T11:54:30;9.40;99.90
52209;DHT22;38507;53.132;6.394;2023-02-22T12:03:11;9.40;99.90
52209;DHT22;38507;53.132;6.394;2023-02-22T12:06:05;9.40;99.90
52209;DHT22;38507;53.132;6.394;2023-02-22T12:19:15;9.80;99.90
52209;DHT22;38507;53.132;6.394;2023-02-22T12:21:50;10.30;99.90
52209;DHT22;38507;53.132;6.394;2023-02-22T12:24:41;10.00;99.90
52209;DHT22;38507;53.132;6.394;2023-02-22T12:27:09;10.60;99.90
52209;DHT22;38507;53.132;6.394;2023-02-22T12:29:42;10.50;99.90
52209;DHT22;38507;53.132;6.394;2023-02-22T12:32:22;10.30;99.90
52209;DHT22;38507;53.132;6.394;2023-02-22T12:35:02;10.20;99.90
52209;DHT22;38507;53.132;6.394;2023-02-22T12:43:41;10.20;99.90
52209;DHT22;38507;53.132;6.394;2023-02-22T12:49:15;10.20;99.90
52209;DHT22;38507;53.132;6.394;2023-02-22T12:59:56;10.30;99.90
52209;DHT22;38507;53.132;6.394;2023-02-22T13:02:31;10.30;99.90
52209;DHT22;38507;53.132;6.394;2023-02-22T13:05:00;10.90;99.90
52209;DHT22;38507;53.132;6.394;2023-02-22T13:07:39;10.30;99.90
52209;DHT22;38507;53.132;6.394;2023-02-22T13:13:08;10.50;99.90
52209;DHT22;38507;53.132;6.394;2023-02-22T13:15:51;10.30;99.90
52209;DHT22;38507;53.132;6.394;2023-02-22T13:18:42;10.30;99.90
52209;DHT22;38507;53.132;6.394;2023-02-22T13:32:19;10.50;99.90
52209;DHT22;38507;53.132;6.394;2023-02-22T13:35:10;10.20;99.90
52209;DHT22;38507;53.132;6.394;2023-02-22T13:37:58;10.60;99.90
52209;DHT22;38507;53.132;6.394;2023-02-22T13:40:44;10.10;99.90
52209;DHT22;38507;53.132;6.394;2023-02-22T13:54:20;10.00;99.90
52209;DHT22;38507;53.132;6.394;2023-02-22T13:56:49;9.90;99.90
52209;DHT22;38507;53.132;6.394;2023-02-22T13:59:31;10.10;99.90
52209;DHT22;38507;53.132;6.394;2023-02-22T14:01:58;9.80;99.90
52209;DHT22;38507;53.132;6.394;2023-02-22T14:09:50;9.70;99.90
52209;DHT22;38507;53.132;6.394;2023-02-22T14:15:16;10.30;99.90
52209;DHT22;38507;53.132;6.394;2023-02-22T14:17:46;9.70;99.90
52209;DHT22;38507;53.132;6.394;2023-02-22T14:22:48;10.00;99.90
52209;DHT22;38507;53.132;6.394;2023-02-22T14:25:33;10.30;99.90
52209;DHT22;38507;53.132;6.394;2023-02-22T14:28:00;10.20;99.90
52209;DHT22;38507;53.132;6.394;2023-02-22T14:30:29;9.90;99.90
52209;DHT22;38507;53.132;6.394;2023-02-22T14:32:56;9.60;99.90
52209;DHT22;38507;53.132;6.394;2023-02-22T14:35:23;10.30;99.90
52209;DHT22;38507;53.132;6.394;2023-02-22T14:37:59;9.60;99.90
52209;DHT22;38507;53.132;6.394;2023-02-22T14:40:30;9.90;99.90
52209;DHT22;38507;53.132;6.394;2023-02-22T14:43:10;9.60;99.90
52209;DHT22;38507;53.132;6.394;2023-02-22T14:45:44;9.30;99.90
52209;DHT22;38507;53.132;6.394;2023-02-22T14:51:28;9.60;99.90
52209;DHT22;38507;53.132;6.394;2023-02-22T14:54:05;9.60;99.90
52209;DHT22;38507;53.132;6.394;2023-02-22T14:56:50;9.60;99.90
52209;DHT22;38507;53.132;6.394;2023-02-22T14:59:24;10.30;99.90
52209;DHT22;38507;53.132;6.394;2023-02-22T15:02:11;9.60;99.90
52209;DHT22;38507;53.132;6.394;2023-02-22T15:04:37;9.70;99.90
52209;DHT22;38507;53.132;6.394;2023-02-22T15:07:22;9.70;99.90
52209;DHT22;38507;53.132;6.394;2023-02-22T15:10:03;10.00;99.90
52209;DHT22;38507;53.132;6.394;2023-02-22T15:12:28;10.10;99.90
52209;DHT22;38507;53.132;6.394;2023-02-22T15:15:45;10.00;99.90
52209;DHT22;38507;53.132;6.394;2023-02-22T15:20:42;10.10;99.90
52209;DHT22;38507;53.132;6.394;2023-02-22T15:23:08;10.10;99.90
52209;DHT22;38507;53.132;6.394;2023-02-22T15:25:34;10.30;99.90
52209;DHT22;38507;53.132;6.394;2023-02-22T15:28:03;10.30;99.90
52209;DHT22;38507;53.132;6.394;2023-02-22T15:30:31;9.60;99.90
52209;DHT22;38507;53.132;6.394;2023-02-22T15:33:16;9.60;99.90
52209;DHT22;38507;53.132;6.394;2023-02-22T15:35:42;9.60;99.90
52209;DHT22;38507;53.132;6.394;2023-02-22T15:40:38;9.60;99.90
52209;DHT22;38507;53.132;6.394;2023-02-22T15:43:20;9.60;99.90
52209;DHT22;38507;53.132;6.394;2023-02-22T15:45:49;9.50;99.90
52209;DHT22;38507;53.132;6.394;2023-02-22T15:48:15;9.60;99.90
52209;DHT22;38507;53.132;6.394;2023-02-22T15:51:05;9.50;99.90
52209;DHT22;38507;53.132;6.394;2023-02-22T15:53:48;9.50;99.90
52209;DHT22;38507;53.132;6.394;2023-02-22T15:56:25;10.10;99.90
52209;DHT22;38507;53.132;6.394;2023-02-22T15:58:59;9.40;99.90
52209;DHT22;38507;53.132;6.394;2023-02-22T16:01:28;9.40;99.90
52209;DHT22;38507;53.132;6.394;2023-02-22T16:04:00;9.80;99.90
52209;DHT22;38507;53.132;6.394;2023-02-22T16:06:32;9.90;99.90
52209;DHT22;38507;53.132;6.394;2023-02-22T16:09:06;9.80;99.90
52209;DHT22;38507;53.132;6.394;2023-02-22T16:11:35;10.00;99.90
52209;DHT22;38507;53.132;6.394;2023-02-22T16:14:22;10.00;99.90
52209;DHT22;38507;53.132;6.394;2023-02-22T16:16:48;9.80;99.90
52209;DHT22;38507;53.132;6.394;2023-02-22T16:19:34;10.00;99.90
52209;DHT22;38507;53.132;6.394;2023-02-22T16:22:04;9.30;99.90
52209;DHT22;38507;53.132;6.394;2023-02-22T16:24:34;9.30;99.90
52209;DHT22;38507;53.132;6.394;2023-02-22T16:27:03;10.00;99.90
52209;DHT22;38507;53.132;6.394;2023-02-22T16:29:29;9.50;99.90
52209;DHT22;38507;53.132;6.394;2023-02-22T16:31:55;9.50;99.90
52209;DHT22;38507;53.132;6.394;2023-02-22T16:34:21;9.80;99.90
52209;DHT22;38507;53.132;6.394;2023-02-22T16:36:47;9.70;99.90
52209;DHT22;38507;53.132;6.394;2023-02-22T16:39:21;9.50;99.90
52209;DHT22;38507;53.132;6.394;2023-02-22T16:41:49;9.10;99.90
52209;DHT22;38507;53.132;6.394;2023-02-22T16:44:15;9.60;99.90
52209;DHT22;38507;53.132;6.394;2023-02-22T16:46:42;9.30;99.90
52209;DHT22;38507;53.132;6.394;2023-02-22T16:49:11;9.30;99.90
52209;DHT22;38507;53.132;6.394;2023-02-22T16:51:51;9.20;99.90
52209;DHT22;38507;53.132;6.394;2023-02-22T16:54:25;8.90;99.90
52209;DHT22;38507;53.132;6.394;2023-02-22T16:56:51;9.30;99.90
52209;DHT22;38507;53.132;6.394;2023-02-22T16:59:18;9.60;99.90
52209;DHT22;38507;53.132;6.394;2023-02-22T17:01:45;8.90;99.90
52209;DHT22;38507;53.132;6.394;2023-02-22T17:04:16;8.80;99.90
52209;DHT22;38507;53.132;6.394;2023-02-22T17:06:43;9.00;99.90
52209;DHT22;38507;53.132;6.394;2023-02-22T17:09:09;8.90;99.90
52209;DHT22;38507;53.132;6.394;2023-02-22T17:11:35;9.40;99.90
52209;DHT22;38507;53.132;6.394;2023-02-22T17:14:02;9.40;99.90
52209;DHT22;38507;53.132;6.394;2023-02-22T17:16:28;9.30;99.90
52209;DHT22;38507;53.132;6.394;2023-02-22T17:18:54;8.80;99.90
52209;DHT22;38507;53.132;6.394;2023-02-22T17:21:19;8.70;99.90
52209;DHT22;38507;53.132;6.394;2023-02-22T17:23:46;9.10;99.90
52209;DHT22;38507;53.132;6.394;2023-02-22T17:26:12;9.40;99.90
52209;DHT22;38507;53.132;6.394;2023-02-22T17:28:39;8.80;99.90
52209;DHT22;38507;53.132;6.394;2023-02-22T17:31:05;8.50;99.90
52209;DHT22;38507;53.132;6.394;2023-02-22T17:33:34;9.20;99.90
52209;DHT22;38507;53.132;6.394;2023-02-22T17:36:02;9.00;99.90
52209;DHT22;38507;53.132;6.394;2023-02-22T17:38:29;8.40;99.90
52209;DHT22;38507;53.132;6.394;2023-02-22T17:40:57;8.80;99.90
52209;DHT22;38507;53.132;6.394;2023-02-22T17:43:24;9.00;99.90
52209;DHT22;38507;53.132;6.394;2023-02-22T17:45:50;9.00;99.90
52209;DHT22;38507;53.132;6.394;2023-02-22T17:48:17;9.00;99.90
52209;DHT22;38507;53.132;6.394;2023-02-22T17:50:44;8.40;99.90
52209;DHT22;38507;53.132;6.394;2023-02-22T17:53:11;8.30;99.90
52209;DHT22;38507;53.132;6.394;2023-02-22T17:55:38;8.90;99.90
52209;DHT22;38507;53.132;6.394;2023-02-22T17:58:06;8.30;99.90
52209;DHT22;38507;53.132;6.394;2023-02-22T18:00:35;8.70;99.90
52209;DHT22;38507;53.132;6.394;2023-02-22T18:03:07;8.60;99.90
52209;DHT22;38507;53.132;6.394;2023-02-22T18:05:38;8.50;99.90
52209;DHT22;38507;53.132;6.394;2023-02-22T18:08:04;8.80;99.90
52209;DHT22;38507;53.132;6.394;2023-02-22T18:10:30;8.90;99.90
52209;DHT22;38507;53.132;6.394;2023-02-22T18:12:56;8.50;99.90
52209;DHT22;38507;53.132;6.394;2023-02-22T18:15:27;8.10;99.90
52209;DHT22;38507;53.132;6.394;2023-02-22T18:17:53;8.00;99.90